Time;durP1;ratioP1;P1;durP2;ratioP2;P2;SDS_P1;SDS_P2;PMS_P1;PMS_P2;Temp;Humidity;BMP_temperature;BMP_pressure;BME280_temperature;BME280_humidity;BME280_pressure;Samples;Min_cycle;Max_cycle;Signal;HPM_P1;HPM_P2
2021/04/25 00:00:29;;;;;;;9.90;5.47;;;7.60;73.80;;;;;;2087486;28;20057;-68
2021/04/25 00:01:30;;;;;;;8.00;5.10;;;7.60;74.60;;;;;;2081148;28;20022;-68
2021/04/25 00:02:31;;;;;;;6.38;4.70;;;7.60;75.40;;;;;;2078563;28;20473;-67
2021/04/25 00:03:31;;;;;;;6.57;4.68;;;7.60;73.80;;;;;;2079519;28;20475;-68
2021/04/25 00:04:32;;;;;;;7.28;5.03;;;7.60;74.00;;;;;;2079503;28;20056;-67
2021/04/25 00:05:32;;;;;;;8.35;5.22;;;7.60;74.00;;;;;;2079533;28;20014;-68
2021/04/25 00:06:33;;;;;;;10.70;5.03;;;7.50;74.10;;;;;;2079442;28;20408;-68
2021/04/25 00:07:34;;;;;;;6.75;4.47;;;7.50;74.80;;;;;;2078724;28;20029;-69
2021/04/25 00:08:34;;;;;;;6.68;4.53;;;7.50;74.00;;;;;;2082362;28;20032;-68
2021/04/25 00:09:35;;;;;;;9.05;5.78;;;7.50;73.50;;;;;;2071231;28;20108;-68
2021/04/25 00:10:35;;;;;;;7.78;5.18;;;7.50;74.60;;;;;;2078763;28;20109;-67
2021/04/25 00:11:36;;;;;;;8.43;5.25;;;7.40;74.00;;;;;;2079551;28;20029;-68
2021/04/25 00:12:41;;;;;;;6.65;4.22;;;7.40;74.50;;;;;;2078935;28;20108;-67
2021/04/25 00:13:43;;;;;;;8.32;5.05;;;7.40;75.00;;;;;;2085840;28;20056;-68
2021/04/25 00:14:44;;;;;;;9.98;5.30;;;7.40;74.30;;;;;;2087628;28;20025;-68
2021/04/25 00:15:44;;;;;;;8.13;4.53;;;7.40;74.60;;;;;;2085485;28;20190;-68
2021/04/25 00:16:45;;;;;;;8.25;5.40;;;7.30;75.30;;;;;;2081935;28;20413;-68
2021/04/25 00:17:46;;;;;;;9.73;5.40;;;7.30;75.10;;;;;;2079414;28;20095;-68
2021/04/25 00:18:46;;;;;;;7.43;4.63;;;7.30;75.50;;;;;;2079509;28;20029;-68
2021/04/25 00:19:47;;;;;;;13.63;5.28;;;7.30;76.00;;;;;;2082687;28;20029;-68
2021/04/25 00:20:48;;;;;;;10.07;5.38;;;7.30;76.50;;;;;;2084449;28;20479;-68
2021/04/25 00:21:48;;;;;;;7.10;5.05;;;7.20;75.60;;;;;;2085767;28;20121;-68
2021/04/25 00:22:49;;;;;;;7.45;5.20;;;7.20;76.10;;;;;;2078434;28;20098;-68
2021/04/25 00:23:50;;;;;;;8.50;5.65;;;7.20;76.00;;;;;;2079058;28;20025;-67
2021/04/25 00:24:51;;;;;;;6.75;5.30;;;7.20;77.00;;;;;;2083582;28;20040;-67
2021/04/25 00:25:51;;;;;;;9.57;5.40;;;7.10;77.60;;;;;;2087580;28;20022;-67
2021/04/25 00:26:52;;;;;;;8.27;5.03;;;7.10;77.50;;;;;;2087427;28;20071;-68
2021/04/25 00:27:53;;;;;;;9.93;5.10;;;7.10;77.90;;;;;;2083452;28;20144;-67
2021/04/25 00:28:54;;;;;;;8.38;4.72;;;7.10;77.50;;;;;;2070576;28;20109;-68
2021/04/25 00:29:54;;;;;;;8.73;5.50;;;7.00;77.30;;;;;;2078820;28;20037;-68
2021/04/25 00:30:55;;;;;;;9.32;5.70;;;7.00;78.40;;;;;;2072432;28;20026;-68
2021/04/25 00:31:55;;;;;;;9.55;5.00;;;7.00;78.90;;;;;;2079264;28;20034;-68
2021/04/25 00:32:56;;;;;;;8.32;4.85;;;7.00;78.10;;;;;;2079863;28;20021;-67
2021/04/25 00:33:57;;;;;;;9.65;5.78;;;6.90;78.50;;;;;;2079210;28;20068;-68
2021/04/25 00:34:58;;;;;;;8.43;4.90;;;6.90;79.10;;;;;;2079235;28;20032;-67
2021/04/25 00:35:58;;;;;;;8.35;5.35;;;6.90;79.10;;;;;;2079673;28;20044;-67
2021/04/25 00:36:59;;;;;;;8.52;5.15;;;6.80;79.00;;;;;;2079439;28;20025;-68
2021/04/25 00:37:59;;;;;;;8.55;5.38;;;6.80;80.20;;;;;;2079023;28;20358;-67
2021/04/25 00:39:00;;;;;;;7.50;5.13;;;6.80;80.60;;;;;;2079353;28;20037;-67
2021/04/25 00:40:01;;;;;;;6.20;4.68;;;6.80;81.00;;;;;;2079516;28;20029;-67
2021/04/25 00:41:01;;;;;;;9.23;5.32;;;6.80;79.10;;;;;;2079027;28;20022;-67
2021/04/25 00:42:02;;;;;;;10.40;5.53;;;6.70;79.70;;;;;;2077343;28;20452;-67
2021/04/25 00:43:03;;;;;;;7.30;5.20;;;6.70;80.00;;;;;;2076324;28;20026;-67
2021/04/25 00:44:06;;;;;;;8.05;5.18;;;6.60;80.40;;;;;;2080856;28;20129;-67
2021/04/25 00:45:12;;;;;;;8.65;5.50;;;6.60;79.70;;;;;;2080508;28;20103;-67
2021/04/25 00:46:13;;;;;;;9.65;4.95;;;6.60;80.90;;;;;;2080116;28;20022;-68
2021/04/25 00:47:14;;;;;;;9.75;5.68;;;6.60;79.20;;;;;;2080106;28;20030;-67
2021/04/25 00:48:14;;;;;;;7.50;5.45;;;6.50;80.30;;;;;;2080592;28;20488;-67
2021/04/25 00:49:15;;;;;;;11.32;5.75;;;6.50;79.80;;;;;;2086334;28;20484;-67
2021/04/25 00:50:20;;;;;;;10.45;5.80;;;6.50;80.80;;;;;;2087881;28;20400;-67
2021/04/25 00:51:23;;;;;;;9.23;5.05;;;6.50;81.80;;;;;;2072737;28;20050;-67
2021/04/25 00:52:25;;;;;;;11.13;6.38;;;6.40;81.40;;;;;;2076702;28;20112;-67
2021/04/25 00:53:26;;;;;;;9.05;5.53;;;6.40;82.10;;;;;;2081008;28;20032;-67
2021/04/25 00:54:27;;;;;;;8.93;5.20;;;6.40;82.90;;;;;;2071847;28;20571;-68
2021/04/25 00:55:30;;;;;;;8.43;5.72;;;6.40;83.10;;;;;;2079565;28;20017;-67
2021/04/25 00:56:32;;;;;;;9.13;5.30;;;6.30;83.60;;;;;;2080696;28;20026;-67
2021/04/25 00:57:33;;;;;;;8.18;4.97;;;6.30;83.80;;;;;;2087473;28;20037;-68
2021/04/25 00:58:34;;;;;;;7.22;5.05;;;6.30;83.60;;;;;;2085848;28;20384;-67
2021/04/25 00:59:35;;;;;;;11.63;5.57;;;6.30;83.30;;;;;;2080286;28;20045;-67
2021/04/25 01:00:35;;;;;;;9.48;6.00;;;6.20;82.50;;;;;;2081176;28;20795;-67
2021/04/25 01:01:36;;;;;;;11.32;6.07;;;6.20;83.60;;;;;;2080716;28;20385;-67
2021/04/25 01:02:38;;;;;;;6.82;5.07;;;6.20;84.30;;;;;;2080193;28;20033;-68
2021/04/25 01:03:38;;;;;;;8.05;5.47;;;6.20;83.60;;;;;;2084884;28;20068;-68
2021/04/25 01:04:39;;;;;;;10.52;5.47;;;6.10;84.20;;;;;;2089008;28;20040;-68
2021/04/25 01:05:39;;;;;;;8.85;5.50;;;6.10;85.10;;;;;;2088176;28;20082;-68
2021/04/25 01:06:40;;;;;;;8.43;5.50;;;6.10;85.10;;;;;;2081174;28;20679;-68
2021/04/25 01:07:43;;;;;;;11.15;5.43;;;6.10;85.40;;;;;;2080665;28;20021;-68
2021/04/25 01:08:44;;;;;;;9.50;5.18;;;6.00;86.50;;;;;;2086051;28;20557;-68
2021/04/25 01:09:45;;;;;;;9.38;5.78;;;6.00;86.00;;;;;;2089205;28;20384;-68
2021/04/25 01:10:45;;;;;;;8.23;6.13;;;6.00;86.60;;;;;;2088910;28;20037;-68
2021/04/25 01:11:46;;;;;;;7.60;5.45;;;6.00;86.80;;;;;;2088288;28;20120;-68
2021/04/25 01:12:47;;;;;;;11.10;5.85;;;5.90;87.50;;;;;;2081560;28;20026;-68
2021/04/25 01:13:51;;;;;;;9.80;5.75;;;5.90;87.80;;;;;;2088020;28;20032;-68
2021/04/25 01:14:52;;;;;;;7.07;4.80;;;5.90;88.10;;;;;;2088062;28;20033;-68
2021/04/25 01:15:53;;;;;;;5.97;5.07;;;5.90;88.00;;;;;;2087394;28;20032;-68
2021/04/25 01:16:53;;;;;;;10.73;5.68;;;5.80;86.70;;;;;;2086030;28;20393;-67
2021/04/25 01:17:54;;;;;;;8.05;5.40;;;5.80;87.70;;;;;;2080634;28;20061;-68
2021/04/25 01:18:55;;;;;;;6.65;5.35;;;5.80;87.50;;;;;;2080387;28;20021;-67
2021/04/25 01:19:59;;;;;;;9.45;5.30;;;5.70;87.40;;;;;;2080354;28;20346;-68
2021/04/25 01:21:04;;;;;;;10.30;5.72;;;5.70;87.20;;;;;;2080338;28;20483;-68
2021/04/25 01:22:06;;;;;;;7.20;5.47;;;5.70;88.30;;;;;;2071727;28;20120;-68
2021/04/25 01:23:06;;;;;;;10.45;5.22;;;5.70;87.90;;;;;;2074595;28;20073;-68
2021/04/25 01:24:07;;;;;;;8.85;5.70;;;5.70;86.20;;;;;;2080156;28;20036;-68
2021/04/25 01:25:11;;;;;;;9.18;6.07;;;5.70;87.70;;;;;;2086682;28;20108;-68
2021/04/25 01:26:11;;;;;;;9.63;5.75;;;5.60;88.60;;;;;;2088984;28;20021;-68
2021/04/25 01:27:12;;;;;;;9.05;6.25;;;5.60;88.90;;;;;;2084555;28;20456;-67
2021/04/25 01:28:13;;;;;;;10.32;5.82;;;5.60;89.20;;;;;;2085527;28;20079;-67
2021/04/25 01:29:13;;;;;;;9.45;5.22;;;5.60;89.20;;;;;;2088562;28;20086;-68
2021/04/25 01:30:18;;;;;;;8.77;5.75;;;5.50;89.10;;;;;;2088178;28;20572;-67
2021/04/25 01:31:18;;;;;;;14.43;5.85;;;5.50;88.90;;;;;;2076250;28;20025;-68
2021/04/25 01:32:19;;;;;;;7.90;5.70;;;5.50;89.00;;;;;;2079831;28;20091;-68
2021/04/25 01:33:20;;;;;;;7.57;5.25;;;5.50;89.20;;;;;;2087986;28;20056;-68
2021/04/25 01:34:21;;;;;;;10.95;6.10;;;5.50;88.10;;;;;;2088717;28;20453;-68
2021/04/25 01:35:24;;;;;;;12.95;6.18;;;5.40;88.70;;;;;;2088531;28;20127;-67
2021/04/25 01:36:24;;;;;;;10.00;6.75;;;5.40;90.20;;;;;;2088694;28;20517;-68
2021/04/25 01:37:25;;;;;;;6.63;5.35;;;5.40;90.20;;;;;;2081660;28;20342;-67
2021/04/25 01:38:26;;;;;;;10.38;5.70;;;5.40;90.30;;;;;;2079805;28;20032;-67
2021/04/25 01:39:28;;;;;;;10.43;5.57;;;5.30;90.10;;;;;;2079871;28;20918;-68
2021/04/25 01:40:37;;;;;;;10.35;5.90;;;5.30;90.40;;;;;;2072333;28;20030;-68
2021/04/25 01:41:38;;;;;;;10.50;5.97;;;5.30;90.90;;;;;;2077197;28;20495;-67
2021/04/25 01:42:39;;;;;;;8.50;6.20;;;5.30;90.40;;;;;;2080918;28;20278;-67
2021/04/25 01:43:39;;;;;;;10.40;6.13;;;5.30;91.20;;;;;;2080136;28;20037;-68
2021/04/25 01:44:40;;;;;;;8.68;5.82;;;5.30;91.50;;;;;;2080625;28;20026;-68
2021/04/25 01:45:41;;;;;;;11.50;5.97;;;5.30;91.30;;;;;;2080053;28;20071;-68
2021/04/25 01:46:41;;;;;;;7.60;5.32;;;5.30;91.10;;;;;;2079996;28;20071;-68
2021/04/25 01:47:54;;;;;;;9.50;5.88;;;5.20;90.50;;;;;;2085600;28;20032;-68
2021/04/25 01:48:54;;;;;;;7.95;5.28;;;5.30;91.30;;;;;;2085236;28;20095;-68
2021/04/25 01:49:55;;;;;;;8.68;6.07;;;5.20;91.70;;;;;;2080481;28;20041;-67
2021/04/25 01:50:56;;;;;;;9.95;5.57;;;5.20;92.10;;;;;;2080375;28;20028;-68
2021/04/25 01:51:56;;;;;;;10.98;6.28;;;5.20;92.20;;;;;;2081412;28;20112;-68
2021/04/25 01:52:58;;;;;;;8.10;6.30;;;5.20;92.30;;;;;;2085874;28;20117;-68
2021/04/25 01:53:58;;;;;;;8.40;5.82;;;5.20;92.40;;;;;;2080388;28;20365;-67
2021/04/25 01:54:59;;;;;;;10.10;5.65;;;5.20;92.30;;;;;;2081420;28;20143;-68
2021/04/25 01:56:00;;;;;;;8.40;5.03;;;5.20;92.20;;;;;;2079763;28;20017;-68
2021/04/25 01:57:01;;;;;;;9.27;5.85;;;5.20;91.70;;;;;;2082300;28;20040;-68
2021/04/25 01:58:03;;;;;;;9.43;5.72;;;5.20;92.50;;;;;;2085829;28;20444;-68
2021/04/25 01:59:04;;;;;;;8.98;5.45;;;5.20;92.60;;;;;;2079498;28;20362;-68
2021/04/25 02:00:09;;;;;;;9.00;5.47;;;5.20;92.20;;;;;;2079690;28;20087;-68
2021/04/25 02:01:09;;;;;;;8.60;6.22;;;5.10;92.40;;;;;;2081634;28;20025;-68
2021/04/25 02:02:10;;;;;;;7.22;5.55;;;5.10;92.80;;;;;;2081172;28;20029;-68
2021/04/25 02:03:13;;;;;;;8.30;6.22;;;5.10;93.10;;;;;;2081534;28;20014;-68
2021/04/25 02:04:14;;;;;;;12.15;6.13;;;5.20;93.50;;;;;;2081021;28;20022;-68
2021/04/25 02:05:14;;;;;;;9.25;6.25;;;5.20;93.40;;;;;;2084741;28;20017;-67
2021/04/25 02:06:15;;;;;;;9.35;5.68;;;5.20;92.60;;;;;;2073431;28;20114;-68
2021/04/25 02:07:16;;;;;;;10.43;6.75;;;5.10;92.70;;;;;;2080411;28;20472;-68
2021/04/25 02:08:16;;;;;;;9.27;6.30;;;5.20;93.10;;;;;;2083206;28;20052;-68
2021/04/25 02:09:17;;;;;;;7.90;5.80;;;5.10;93.70;;;;;;2089682;28;20059;-68
2021/04/25 02:10:19;;;;;;;11.50;6.03;;;5.10;93.70;;;;;;2090119;28;20103;-68
2021/04/25 02:11:20;;;;;;;10.23;5.65;;;5.10;94.00;;;;;;2080699;28;20025;-68
2021/04/25 02:12:21;;;;;;;6.65;5.40;;;5.10;93.90;;;;;;2072331;28;20118;-68
2021/04/25 02:13:21;;;;;;;11.98;6.53;;;5.10;94.30;;;;;;2073941;28;20092;-68
2021/04/25 02:14:22;;;;;;;8.98;5.57;;;5.10;94.40;;;;;;2072794;28;20034;-68
2021/04/25 02:15:24;;;;;;;9.88;6.72;;;5.10;94.60;;;;;;2079871;28;20096;-68
2021/04/25 02:16:25;;;;;;;12.77;6.45;;;5.10;94.70;;;;;;2083285;28;20430;-68
2021/04/25 02:17:25;;;;;;;8.45;5.88;;;5.10;94.50;;;;;;2084467;28;20381;-68
2021/04/25 02:18:26;;;;;;;10.48;5.90;;;5.10;94.20;;;;;;2086321;28;20043;-68
2021/04/25 02:19:26;;;;;;;9.02;5.82;;;5.10;94.00;;;;;;2089909;28;20056;-68
2021/04/25 02:20:27;;;;;;;11.13;6.63;;;5.10;93.90;;;;;;2089729;28;20056;-68
2021/04/25 02:21:28;;;;;;;10.27;6.18;;;5.10;95.00;;;;;;2084027;28;20021;-68
2021/04/25 02:22:29;;;;;;;9.02;6.18;;;5.10;94.60;;;;;;2080931;28;20108;-68
2021/04/25 02:23:29;;;;;;;9.57;6.28;;;5.10;94.40;;;;;;2088138;28;20063;-68
2021/04/25 02:24:30;;;;;;;9.75;6.10;;;5.10;94.90;;;;;;2089618;28;20079;-68
2021/04/25 02:25:31;;;;;;;10.90;6.30;;;5.10;94.60;;;;;;2087447;28;20075;-68
2021/04/25 02:26:32;;;;;;;10.18;6.22;;;5.20;95.30;;;;;;2081431;28;20469;-68
2021/04/25 02:27:32;;;;;;;10.73;6.57;;;5.20;95.60;;;;;;2080832;28;20104;-68
2021/04/25 02:28:33;;;;;;;10.43;6.07;;;5.10;95.40;;;;;;2080822;28;20041;-68
2021/04/25 02:29:34;;;;;;;9.23;6.35;;;5.20;95.90;;;;;;2084770;28;20528;-68
2021/04/25 02:30:36;;;;;;;8.02;6.15;;;5.20;96.10;;;;;;2089861;28;20044;-68
2021/04/25 02:31:36;;;;;;;8.60;6.25;;;5.20;95.90;;;;;;2089601;28;20029;-68
2021/04/25 02:32:37;;;;;;;19.48;7.28;;;5.20;95.90;;;;;;2087141;28;20025;-68
2021/04/25 02:33:38;;;;;;;7.95;6.15;;;5.20;95.90;;;;;;2081468;28;20029;-68
2021/04/25 02:34:39;;;;;;;9.32;6.25;;;5.20;95.60;;;;;;2081410;28;20104;-68
2021/04/25 02:35:39;;;;;;;10.38;6.50;;;5.20;96.20;;;;;;2081115;28;20508;-68
2021/04/25 02:36:41;;;;;;;9.38;6.38;;;5.20;96.30;;;;;;2081361;28;20044;-68
2021/04/25 02:37:42;;;;;;;10.75;6.78;;;5.20;96.10;;;;;;2084739;28;20392;-68
2021/04/25 02:38:43;;;;;;;11.10;7.35;;;5.30;96.20;;;;;;2089604;28;20116;-68
2021/04/25 02:39:43;;;;;;;12.75;6.35;;;5.30;96.50;;;;;;2089651;28;20036;-68
2021/04/25 02:40:44;;;;;;;10.52;6.25;;;5.30;96.20;;;;;;2089901;28;20365;-68
2021/04/25 02:41:46;;;;;;;10.57;6.50;;;5.30;96.30;;;;;;2087577;28;20376;-68
2021/04/25 02:42:47;;;;;;;11.25;6.28;;;5.30;96.70;;;;;;2080803;28;20093;-68
2021/04/25 02:43:48;;;;;;;13.43;7.05;;;5.30;96.10;;;;;;2080792;28;20033;-68
2021/04/25 02:44:48;;;;;;;10.98;6.47;;;5.30;96.70;;;;;;2080809;28;20025;-68
2021/04/25 02:45:49;;;;;;;13.98;6.65;;;5.30;97.10;;;;;;2080782;28;20484;-68
2021/04/25 02:46:50;;;;;;;14.55;7.30;;;5.30;97.00;;;;;;2075261;28;20018;-68
2021/04/25 02:48:03;;;;;;;10.88;6.88;;;5.30;97.70;;;;;;2081283;28;20072;-68
2021/04/25 02:49:04;;;;;;;12.93;7.13;;;5.40;98.40;;;;;;2081182;28;20472;-68
2021/04/25 02:50:05;;;;;;;10.73;6.60;;;5.30;98.10;;;;;;2081252;28;20708;-68
2021/04/25 02:51:06;;;;;;;11.85;7.03;;;5.40;97.50;;;;;;2073303;28;20014;-68
2021/04/25 02:52:06;;;;;;;8.85;6.25;;;5.40;98.10;;;;;;2078612;28;20031;-68
2021/04/25 02:53:08;;;;;;;11.63;7.68;;;5.40;97.80;;;;;;2085437;28;20084;-68
2021/04/25 02:54:09;;;;;;;8.18;5.70;;;5.40;98.00;;;;;;2081229;28;20095;-68
2021/04/25 02:55:11;;;;;;;11.10;6.93;;;5.40;97.20;;;;;;2075410;28;20021;-68
2021/04/25 02:56:11;;;;;;;8.38;6.22;;;5.40;97.00;;;;;;2081071;28;20018;-68
2021/04/25 02:57:12;;;;;;;10.68;7.18;;;5.40;97.00;;;;;;2089545;28;20031;-68
2021/04/25 02:58:13;;;;;;;12.10;7.13;;;5.40;97.80;;;;;;2087991;28;20503;-68
2021/04/25 02:59:13;;;;;;;11.52;6.97;;;5.50;98.20;;;;;;2081792;28;20452;-68
2021/04/25 03:00:17;;;;;;;10.00;6.28;;;5.50;97.80;;;;;;2080107;28;20029;-68
2021/04/25 03:01:18;;;;;;;10.27;7.00;;;5.50;98.00;;;;;;2072954;28;20415;-68
2021/04/25 03:02:18;;;;;;;10.82;7.20;;;5.50;98.10;;;;;;2079145;28;20056;-68
2021/04/25 03:03:19;;;;;;;13.15;7.47;;;5.50;98.10;;;;;;2080549;28;20026;-68
2021/04/25 03:04:20;;;;;;;10.68;7.43;;;5.50;98.40;;;;;;2080598;28;20120;-68
2021/04/25 03:05:21;;;;;;;14.45;7.72;;;5.50;98.70;;;;;;2080219;28;20029;-68
2021/04/25 03:06:21;;;;;;;10.75;6.40;;;5.50;98.30;;;;;;2080191;28;20491;-68
2021/04/25 03:07:22;;;;;;;9.45;6.75;;;5.50;97.70;;;;;;2079484;28;20021;-68
2021/04/25 03:08:23;;;;;;;7.15;5.80;;;5.50;97.70;;;;;;2081865;28;20030;-68
2021/04/25 03:09:23;;;;;;;9.60;6.20;;;5.50;97.30;;;;;;2088143;28;20031;-68
2021/04/25 03:10:25;;;;;;;9.95;7.35;;;5.60;97.60;;;;;;2088381;28;20071;-68
2021/04/25 03:11:25;;;;;;;10.30;7.32;;;5.60;97.70;;;;;;2086999;28;20032;-68
2021/04/25 03:12:26;;;;;;;12.50;7.72;;;5.60;98.40;;;;;;2078949;28;20036;-68
2021/04/25 03:13:27;;;;;;;13.27;8.48;;;5.60;98.90;;;;;;2079661;28;20465;-68
2021/04/25 03:14:27;;;;;;;10.25;7.22;;;5.60;99.20;;;;;;2079935;28;20056;-68
2021/04/25 03:15:28;;;;;;;13.52;7.00;;;5.60;98.80;;;;;;2079436;28;20108;-68
2021/04/25 03:16:29;;;;;;;14.32;8.20;;;5.60;98.80;;;;;;2080023;28;20117;-68
2021/04/25 03:17:29;;;;;;;14.68;8.27;;;5.70;98.90;;;;;;2079439;28;20033;-68
2021/04/25 03:18:30;;;;;;;15.07;8.90;;;5.70;98.80;;;;;;2085588;28;20416;-68
2021/04/25 03:19:30;;;;;;;11.52;7.50;;;5.70;99.10;;;;;;2087168;28;20045;-68
2021/04/25 03:20:31;;;;;;;15.27;8.13;;;5.70;98.70;;;;;;2087610;28;20087;-68
2021/04/25 03:21:32;;;;;;;9.10;6.60;;;5.70;98.90;;;;;;2083390;28;20381;-68
2021/04/25 03:22:33;;;;;;;11.88;7.45;;;5.70;99.20;;;;;;2078980;28;20025;-68
2021/04/25 03:23:34;;;;;;;11.52;7.47;;;5.70;98.90;;;;;;2079610;28;20374;-68
2021/04/25 03:24:34;;;;;;;10.70;7.70;;;5.70;99.00;;;;;;2082064;28;20018;-68
2021/04/25 03:25:35;;;;;;;13.43;8.07;;;5.70;99.40;;;;;;2088162;28;20441;-68
2021/04/25 03:26:35;;;;;;;12.82;7.82;;;5.70;99.70;;;;;;2087938;28;20056;-68
2021/04/25 03:27:37;;;;;;;10.57;7.32;;;5.70;99.50;;;;;;2087757;28;20021;-68
2021/04/25 03:28:38;;;;;;;10.07;7.20;;;5.80;99.30;;;;;;2080133;28;20112;-68
2021/04/25 03:29:38;;;;;;;13.65;7.97;;;5.80;99.20;;;;;;2079711;28;20040;-68
2021/04/25 03:30:39;;;;;;;12.02;8.63;;;5.80;99.30;;;;;;2079789;28;20061;-68
2021/04/25 03:31:40;;;;;;;12.50;7.45;;;5.80;99.40;;;;;;2079334;28;20029;-68
2021/04/25 03:32:41;;;;;;;10.00;7.13;;;5.80;99.60;;;;;;2081630;28;20033;-68
2021/04/25 03:33:42;;;;;;;11.55;7.93;;;5.80;99.10;;;;;;2088210;28;20384;-68
2021/04/25 03:34:42;;;;;;;14.55;7.95;;;5.80;99.30;;;;;;2087636;28;20465;-67
2021/04/25 03:35:43;;;;;;;13.88;8.48;;;5.80;99.20;;;;;;2087804;28;20358;-68
2021/04/25 03:36:43;;;;;;;12.63;8.13;;;5.80;99.40;;;;;;2085593;28;20392;-68
2021/04/25 03:37:45;;;;;;;13.20;7.95;;;5.80;99.30;;;;;;2079396;28;20029;-68
2021/04/25 03:38:46;;;;;;;12.15;8.18;;;5.90;99.50;;;;;;2079879;28;20022;-68
2021/04/25 03:39:46;;;;;;;13.23;7.97;;;5.90;99.30;;;;;;2078734;28;20026;-68
2021/04/25 03:40:47;;;;;;;10.20;7.25;;;5.90;99.20;;;;;;2077626;28;20029;-68
2021/04/25 03:41:47;;;;;;;10.77;7.50;;;5.90;99.10;;;;;;2078529;28;20029;-68
2021/04/25 03:42:48;;;;;;;16.95;8.75;;;5.90;99.30;;;;;;2081277;28;20096;-68
2021/04/25 03:43:49;;;;;;;10.48;7.47;;;5.90;99.40;;;;;;2079829;28;20056;-68
2021/04/25 03:44:50;;;;;;;13.52;8.13;;;5.90;99.60;;;;;;2079711;28;20025;-68
2021/04/25 03:45:50;;;;;;;14.00;8.82;;;5.90;99.80;;;;;;2079646;28;20419;-68
2021/04/25 03:46:51;;;;;;;15.63;8.18;;;5.90;99.90;;;;;;2079286;28;20029;-68
2021/04/25 03:47:53;;;;;;;16.33;7.95;;;5.90;99.90;;;;;;2078893;28;20041;-68
2021/04/25 03:48:54;;;;;;;11.63;8.00;;;5.90;99.90;;;;;;2078385;28;20025;-68
2021/04/25 03:49:54;;;;;;;13.10;7.57;;;5.90;99.90;;;;;;2071825;28;20042;-68
2021/04/25 03:50:55;;;;;;;11.30;7.78;;;5.90;99.90;;;;;;2074716;28;20046;-68
2021/04/25 03:51:56;;;;;;;16.20;9.15;;;5.90;99.80;;;;;;2080153;28;20030;-68
2021/04/25 03:52:56;;;;;;;13.07;8.45;;;6.00;99.90;;;;;;2078883;28;20033;-68
2021/04/25 03:53:57;;;;;;;10.88;8.18;;;6.00;99.90;;;;;;2083970;28;20524;-68
2021/04/25 03:54:58;;;;;;;13.65;8.40;;;6.00;99.90;;;;;;2088102;28;20083;-68
2021/04/25 03:55:58;;;;;;;15.45;7.70;;;6.00;99.90;;;;;;2080526;28;20455;-68
2021/04/25 03:57:05;;;;;;;15.18;8.35;;;6.00;99.90;;;;;;2079579;28;20025;-68
2021/04/25 03:58:06;;;;;;;12.10;8.07;;;6.00;99.90;;;;;;2079540;28;20445;-68
2021/04/25 03:59:07;;;;;;;14.50;8.57;;;6.00;99.90;;;;;;2085846;28;20488;-68
2021/04/25 04:00:10;;;;;;;12.68;9.40;;;6.00;99.90;;;;;;2088064;28;20434;-68
2021/04/25 04:01:11;;;;;;;13.70;8.00;;;6.00;99.90;;;;;;2087087;28;20117;-68
2021/04/25 04:02:11;;;;;;;16.02;9.00;;;6.00;99.90;;;;;;2086252;28;20030;-68
2021/04/25 04:03:12;;;;;;;15.35;8.50;;;6.00;99.90;;;;;;2079540;28;20040;-68
2021/04/25 04:04:13;;;;;;;15.77;9.20;;;6.00;99.90;;;;;;2079779;28;20044;-68
2021/04/25 04:05:14;;;;;;;16.70;9.50;;;6.00;99.90;;;;;;2079390;28;20026;-68
2021/04/25 04:06:14;;;;;;;16.00;8.60;;;6.00;99.90;;;;;;2079804;28;20765;-68
2021/04/25 04:07:15;;;;;;;13.18;8.38;;;6.00;99.90;;;;;;2079256;28;20096;-68
2021/04/25 04:08:16;;;;;;;15.32;9.75;;;6.00;99.90;;;;;;2079944;28;20640;-68
2021/04/25 04:09:17;;;;;;;16.85;9.85;;;6.00;99.90;;;;;;2079307;28;20114;-68
2021/04/25 04:10:18;;;;;;;14.82;8.98;;;6.10;99.90;;;;;;2084849;28;20487;-68
2021/04/25 04:11:19;;;;;;;14.57;9.10;;;6.10;99.90;;;;;;2087946;28;20388;-69
2021/04/25 04:12:19;;;;;;;12.40;8.65;;;6.10;99.90;;;;;;2083209;28;20071;-68
2021/04/25 04:13:20;;;;;;;14.77;8.32;;;6.10;99.90;;;;;;2082689;28;20025;-68
2021/04/25 04:14:20;;;;;;;16.42;8.75;;;6.10;99.90;;;;;;2088294;28;20675;-68
2021/04/25 04:15:21;;;;;;;12.50;8.63;;;6.10;99.90;;;;;;2087426;28;20422;-68
2021/04/25 04:16:21;;;;;;;16.98;9.07;;;6.10;99.90;;;;;;2088081;28;20056;-68
2021/04/25 04:17:22;;;;;;;12.45;9.15;;;6.10;99.90;;;;;;2082978;28;20101;-68
2021/04/25 04:18:23;;;;;;;13.55;8.90;;;6.10;99.90;;;;;;2082714;28;20097;-68
2021/04/25 04:19:23;;;;;;;13.30;7.93;;;6.10;99.90;;;;;;2081443;28;20100;-68
2021/04/25 04:20:24;;;;;;;20.83;9.98;;;6.10;99.90;;;;;;2081280;28;20068;-68
2021/04/25 04:21:25;;;;;;;17.15;9.25;;;6.10;99.90;;;;;;2081036;28;20044;-68
2021/04/25 04:22:25;;;;;;;15.07;8.82;;;6.10;99.90;;;;;;2080795;28;20037;-68
2021/04/25 04:23:26;;;;;;;13.15;8.45;;;6.10;99.90;;;;;;2087048;28;20028;-68
2021/04/25 04:24:26;;;;;;;13.93;8.55;;;6.10;99.90;;;;;;2089337;28;20048;-68
2021/04/25 04:25:27;;;;;;;14.55;8.30;;;6.10;99.90;;;;;;2088865;28;20036;-68
2021/04/25 04:26:28;;;;;;;16.45;9.02;;;6.10;99.90;;;;;;2088991;28;20025;-68
2021/04/25 04:27:28;;;;;;;13.07;8.25;;;6.10;99.90;;;;;;2084149;28;20630;-68
2021/04/25 04:28:29;;;;;;;11.10;8.05;;;6.10;99.80;;;;;;2081328;28;20037;-68
2021/04/25 04:29:30;;;;;;;12.32;7.97;;;6.10;99.90;;;;;;2083741;28;20354;-68
2021/04/25 04:30:30;;;;;;;12.90;8.07;;;6.10;99.80;;;;;;2089445;28;20025;-68
2021/04/25 04:31:31;;;;;;;11.90;7.72;;;6.20;99.90;;;;;;2086957;28;20051;-68
2021/04/25 04:32:31;;;;;;;11.88;7.18;;;6.10;99.80;;;;;;2083398;28;20160;-69
2021/04/25 04:33:32;;;;;;;10.32;7.18;;;6.20;99.80;;;;;;2081157;28;20029;-68
2021/04/25 04:34:33;;;;;;;14.27;7.20;;;6.10;99.70;;;;;;2081054;28;20032;-68
2021/04/25 04:35:33;;;;;;;14.20;8.43;;;6.20;99.50;;;;;;2081130;28;20171;-68
2021/04/25 04:36:34;;;;;;;13.10;8.00;;;6.20;99.50;;;;;;2080986;28;20477;-68
2021/04/25 04:37:34;;;;;;;11.25;7.13;;;6.20;99.40;;;;;;2082763;28;20037;-68
2021/04/25 04:38:35;;;;;;;9.55;6.10;;;6.10;99.30;;;;;;2089275;28;20086;-68
2021/04/25 04:39:36;;;;;;;12.57;7.90;;;6.10;99.00;;;;;;2088418;28;20473;-68
2021/04/25 04:40:36;;;;;;;13.18;7.95;;;6.10;99.20;;;;;;2088455;28;20025;-68
2021/04/25 04:41:37;;;;;;;11.15;7.57;;;6.20;99.20;;;;;;2092439;28;20033;-68
2021/04/25 04:42:38;;;;;;;10.60;6.88;;;6.20;99.00;;;;;;2088907;28;20024;-68
2021/04/25 04:43:38;;;;;;;10.93;6.57;;;6.20;98.90;;;;;;2081016;28;20022;-68
2021/04/25 04:44:39;;;;;;;10.40;7.55;;;6.20;98.90;;;;;;2087755;28;20778;-69
2021/04/25 04:45:39;;;;;;;12.63;6.80;;;6.20;99.00;;;;;;2082131;28;20021;-68
2021/04/25 04:46:40;;;;;;;10.82;6.70;;;6.20;98.80;;;;;;2080935;28;20045;-68
2021/04/25 04:47:45;;;;;;;13.23;7.00;;;6.20;98.70;;;;;;2085623;28;20411;-68
2021/04/25 04:48:46;;;;;;;10.50;6.82;;;6.20;98.30;;;;;;2085741;28;20101;-68
2021/04/25 04:49:47;;;;;;;9.27;5.78;;;6.10;98.00;;;;;;2081068;28;20495;-68
2021/04/25 04:50:47;;;;;;;7.40;5.68;;;6.10;97.70;;;;;;2080638;28;20029;-68
2021/04/25 04:51:48;;;;;;;10.07;5.75;;;6.20;97.80;;;;;;2081376;28;20033;-68
2021/04/25 04:52:49;;;;;;;9.45;5.90;;;6.20;97.60;;;;;;2081418;28;20041;-68
2021/04/25 04:53:49;;;;;;;11.07;5.70;;;6.20;97.50;;;;;;2083699;28;20060;-68
2021/04/25 04:54:50;;;;;;;11.30;5.80;;;6.20;97.80;;;;;;2088384;28;20139;-68
2021/04/25 04:55:50;;;;;;;9.45;5.28;;;6.20;97.50;;;;;;2082422;28;20523;-68
2021/04/25 04:56:51;;;;;;;7.75;5.50;;;6.20;97.00;;;;;;2080737;28;20118;-68
2021/04/25 04:57:52;;;;;;;8.25;5.75;;;6.20;97.00;;;;;;2080887;28;20022;-68
2021/04/25 04:58:52;;;;;;;11.18;5.65;;;6.30;96.90;;;;;;2085400;28;20048;-68
2021/04/25 04:59:53;;;;;;;11.85;5.28;;;6.30;96.70;;;;;;2088461;28;20127;-68
2021/04/25 05:00:53;;;;;;;10.35;5.97;;;6.30;96.30;;;;;;2088345;28;20067;-68
2021/04/25 05:01:54;;;;;;;9.90;5.60;;;6.30;96.30;;;;;;2086879;28;20067;-68
2021/04/25 05:02:55;;;;;;;10.07;6.25;;;6.30;96.30;;;;;;2080216;28;20084;-68
2021/04/25 05:03:55;;;;;;;11.88;5.60;;;6.30;96.60;;;;;;2087246;28;20103;-68
2021/04/25 05:04:56;;;;;;;8.13;5.88;;;6.30;96.00;;;;;;2088828;28;20021;-68
2021/04/25 05:05:57;;;;;;;9.75;5.88;;;6.40;95.90;;;;;;2089432;28;20489;-68
2021/04/25 05:06:57;;;;;;;13.50;6.05;;;6.40;96.20;;;;;;2083651;28;20026;-68
2021/04/25 05:07:58;;;;;;;15.35;6.07;;;6.40;96.20;;;;;;2080762;28;20511;-68
2021/04/25 05:08:58;;;;;;;9.52;5.82;;;6.40;96.40;;;;;;2080815;28;20030;-68
2021/04/25 05:09:59;;;;;;;15.73;6.28;;;6.40;96.40;;;;;;2080918;28;20081;-68
2021/04/25 05:11:00;;;;;;;11.90;5.53;;;6.40;96.10;;;;;;2081094;28;20097;-69
2021/04/25 05:12:00;;;;;;;9.55;5.25;;;6.40;95.60;;;;;;2079679;28;20094;-68
2021/04/25 05:13:01;;;;;;;9.85;5.60;;;6.40;95.50;;;;;;2079487;28;20048;-68
2021/04/25 05:14:02;;;;;;;7.50;5.05;;;6.50;95.30;;;;;;2080095;28;20163;-68
2021/04/25 05:15:04;;;;;;;9.73;5.75;;;6.50;95.70;;;;;;2080097;28;20022;-68
2021/04/25 05:16:04;;;;;;;14.05;6.07;;;6.50;95.70;;;;;;2072371;28;20066;-68
2021/04/25 05:17:05;;;;;;;8.50;5.05;;;6.50;94.90;;;;;;2081018;28;20021;-68
2021/04/25 05:18:06;;;;;;;8.55;5.18;;;6.50;94.80;;;;;;2080789;28;20092;-68
2021/04/25 05:19:07;;;;;;;10.45;5.20;;;6.60;94.90;;;;;;2080783;28;20025;-68